createdAt,value
2022-10-23T00:00:09.558Z,5.57
2022-10-23T00:02:36.092Z,5.28
2022-10-23T00:05:02.830Z,5.95
2022-10-23T00:09:57.302Z,5.60
2022-10-23T00:12:23.834Z,7.18
2022-10-23T00:14:50.307Z,7.03
2022-10-23T00:17:16.812Z,6.20
2022-10-23T00:19:43.302Z,6.15
2022-10-23T00:22:09.820Z,5.78
2022-10-23T00:24:36.339Z,5.55
2022-10-23T00:27:04.225Z,6.00
2022-10-23T00:29:30.739Z,6.40
2022-10-23T00:31:57.233Z,5.82
2022-10-23T00:34:23.664Z,6.15
2022-10-23T00:36:50.218Z,5.75
2022-10-23T00:39:16.772Z,6.32
2022-10-23T00:41:43.311Z,7.78
2022-10-23T00:44:49.787Z,5.95
2022-10-23T00:47:17.132Z,5.72
2022-10-23T00:49:43.753Z,6.78
2022-10-23T00:52:13.079Z,5.80
2022-10-23T00:54:42.110Z,6.00
2022-10-23T00:57:12.690Z,6.57
2022-10-23T00:59:41.455Z,6.88
2022-10-23T01:02:08.331Z,5.63
2022-10-23T01:04:36.189Z,6.25
2022-10-23T01:07:09.190Z,5.93
2022-10-23T01:09:40.889Z,5.30
2022-10-23T01:12:13.392Z,5.97
2022-10-23T01:14:50.689Z,5.63
2022-10-23T01:17:24.860Z,5.75
2022-10-23T01:20:01.278Z,6.25
2022-10-23T01:22:42.846Z,5.88
2022-10-23T01:25:23.637Z,5.95
2022-10-23T01:27:55.992Z,5.75
2022-10-23T01:30:22.601Z,5.93
2022-10-23T01:32:53.881Z,6.07
2022-10-23T01:35:24.192Z,6.65
2022-10-23T01:37:55.553Z,5.80
2022-10-23T01:40:25.408Z,5.95
2022-10-23T01:42:57.262Z,5.82
2022-10-23T01:45:28.075Z,5.47
2022-10-23T01:47:56.457Z,5.25
2022-10-23T01:50:24.956Z,5.75
2022-10-23T01:52:51.754Z,4.97
2022-10-23T01:55:18.559Z,5.32
2022-10-23T01:57:47.461Z,5.70
2022-10-23T02:00:17.936Z,6.28
2022-10-23T02:02:46.083Z,6.00
2022-10-23T02:05:17.187Z,5.57
2022-10-23T02:07:44.935Z,6.28
2022-10-23T02:10:13.639Z,5.40
2022-10-23T02:12:50.031Z,5.90
2022-10-23T02:15:25.627Z,6.55
2022-10-23T02:18:02.399Z,6.30
2022-10-23T02:20:38.326Z,5.82
2022-10-23T02:23:14.235Z,6.47
2022-10-23T02:25:48.030Z,6.32
2022-10-23T02:28:19.785Z,6.68
2022-10-23T02:30:50.125Z,5.65
2022-10-23T02:33:17.728Z,6.50
2022-10-23T02:35:44.672Z,6.03
2022-10-23T02:38:33.968Z,5.35
2022-10-23T02:41:10.859Z,5.93
2022-10-23T02:43:43.511Z,6.32
2022-10-23T02:46:28.976Z,6.07
2022-10-23T02:49:04.366Z,5.53
2022-10-23T02:51:39.178Z,6.25
2022-10-23T02:54:12.172Z,6.00
2022-10-23T02:56:44.253Z,6.82
2022-10-23T02:59:18.811Z,5.43
2022-10-23T03:01:50.742Z,5.28
2022-10-23T03:04:19.637Z,5.47
2022-10-23T03:06:46.710Z,5.78
2022-10-23T03:09:13.198Z,6.53
2022-10-23T03:11:39.728Z,5.60
2022-10-23T03:14:06.729Z,6.15
2022-10-23T03:16:33.247Z,5.90
2022-10-23T03:19:01.099Z,5.18
2022-10-23T03:21:27.756Z,5.70
2022-10-23T03:23:54.234Z,5.60
2022-10-23T03:26:20.806Z,5.95
2022-10-23T03:28:47.341Z,5.57
2022-10-23T03:31:13.881Z,6.40
2022-10-23T03:33:40.408Z,5.90
2022-10-23T03:36:09.419Z,6.25
2022-10-23T03:38:36.246Z,6.40
2022-10-23T03:41:02.778Z,6.45
2022-10-23T03:43:29.264Z,6.07
2022-10-23T03:45:55.943Z,5.97
2022-10-23T03:48:22.443Z,6.93
2022-10-23T03:50:48.962Z,5.90
2022-10-23T03:53:16.794Z,6.25
2022-10-23T03:55:44.230Z,5.93
2022-10-23T03:58:10.796Z,5.53
2022-10-23T04:00:37.312Z,5.57
2022-10-23T04:03:03.979Z,5.95
2022-10-23T04:05:30.559Z,5.82
2022-10-23T04:07:57.252Z,6.18
2022-10-23T04:10:25.141Z,5.50
2022-10-23T04:12:51.725Z,6.18
2022-10-23T04:15:18.271Z,7.13
2022-10-23T04:17:44.816Z,6.32
2022-10-23T04:20:11.360Z,8.13
2022-10-23T04:22:37.886Z,6.65
2022-10-23T04:25:04.933Z,6.00
2022-10-23T04:27:32.896Z,5.60
2022-10-23T04:29:59.358Z,5.90
2022-10-23T04:32:25.997Z,5.90
2022-10-23T04:34:52.510Z,6.10
2022-10-23T04:37:19.189Z,5.78
2022-10-23T04:39:45.623Z,5.80
2022-10-23T04:42:12.148Z,5.28
2022-10-23T04:44:39.992Z,6.10
2022-10-23T04:47:06.513Z,6.00
2022-10-23T04:49:32.954Z,5.80
2022-10-23T04:51:59.554Z,5.93
2022-10-23T04:54:26.063Z,5.68
2022-10-23T04:56:52.571Z,6.07
2022-10-23T04:59:19.049Z,5.03
2022-10-23T05:01:46.908Z,4.75
2022-10-23T05:04:13.442Z,5.53
2022-10-23T05:06:39.965Z,5.80
2022-10-23T05:09:06.490Z,6.15
2022-10-23T05:11:32.936Z,4.82
2022-10-23T05:13:59.406Z,4.30
2022-10-23T05:16:37.737Z,4.25
2022-10-23T05:19:09.114Z,3.50
2022-10-23T05:21:36.028Z,3.90
2022-10-23T05:24:02.608Z,3.90
2022-10-23T05:26:30.672Z,3.90
2022-10-23T05:28:57.207Z,3.40
2022-10-23T05:31:25.224Z,3.55
2022-10-23T05:33:52.608Z,3.60
2022-10-23T05:36:21.919Z,3.40
2022-10-23T05:42:26.001Z,3.60
2022-10-23T05:44:52.512Z,3.45
2022-10-23T05:47:19.021Z,3.40
2022-10-23T05:49:45.533Z,3.28
2022-10-23T05:52:14.030Z,3.72
2022-10-23T05:54:40.979Z,3.53
2022-10-23T05:57:07.798Z,3.53
2022-10-23T05:59:34.415Z,3.30
2022-10-23T06:02:01.130Z,4.30
2022-10-23T06:04:28.038Z,3.20
2022-10-23T06:06:54.603Z,3.42
2022-10-23T06:09:22.564Z,3.88
2022-10-23T06:11:49.068Z,3.50
2022-10-23T06:14:15.573Z,3.45
2022-10-23T06:16:42.025Z,3.65
2022-10-23T06:19:10.066Z,3.05
2022-10-23T06:21:36.635Z,3.53
2022-10-23T06:24:03.922Z,4.13
2022-10-23T06:26:31.786Z,3.33
2022-10-23T06:28:58.744Z,3.33
2022-10-23T06:31:25.305Z,4.70
2022-10-23T06:33:51.915Z,3.88
2022-10-23T06:36:18.793Z,4.20
2022-10-23T06:38:45.326Z,4.82
2022-10-23T06:41:14.275Z,3.05
2022-10-23T06:43:42.250Z,3.92
2022-10-23T06:46:08.816Z,3.67
2022-10-23T06:48:35.778Z,4.72
2022-10-23T06:51:06.315Z,5.30
2022-10-23T06:53:33.320Z,5.22
2022-10-23T06:56:00.313Z,5.30
2022-10-23T06:58:26.922Z,5.03
2022-10-23T07:00:55.338Z,4.80
2022-10-23T07:03:22.145Z,5.30
2022-10-23T07:05:48.668Z,5.05
2022-10-23T07:08:15.227Z,5.25
2022-10-23T07:10:41.914Z,5.20
2022-10-23T07:13:08.489Z,5.03
2022-10-23T07:15:35.954Z,6.15
2022-10-23T07:18:04.049Z,6.35
2022-10-23T07:20:30.818Z,6.60
2022-10-23T07:22:57.535Z,6.28
2022-10-23T07:25:26.251Z,8.00
2022-10-23T07:27:53.256Z,6.68
2022-10-23T07:30:19.714Z,7.85
2022-10-23T07:32:46.212Z,7.00
2022-10-23T07:37:42.006Z,8.02
2022-10-23T07:40:09.650Z,8.07
2022-10-23T07:42:36.175Z,7.53
2022-10-23T07:45:02.765Z,7.55
2022-10-23T07:47:29.296Z,8.15
2022-10-23T07:49:55.841Z,7.30
2022-10-23T07:52:23.817Z,8.60
2022-10-23T07:54:50.935Z,8.27
2022-10-23T07:57:17.705Z,8.02
2022-10-23T07:59:44.199Z,8.23
2022-10-23T08:02:12.017Z,8.02
2022-10-23T08:04:38.573Z,8.82
2022-10-23T08:07:05.007Z,7.68
2022-10-23T08:09:32.883Z,7.57
2022-10-23T08:11:59.343Z,8.52
2022-10-23T08:14:26.344Z,7.35
2022-10-23T08:16:53.021Z,8.95
2022-10-23T08:19:19.535Z,7.85
2022-10-23T08:21:46.070Z,7.70
2022-10-23T08:24:12.801Z,7.57
2022-10-23T08:26:40.993Z,7.28
2022-10-23T08:29:07.520Z,7.47
2022-10-23T08:31:34.036Z,7.47
2022-10-23T08:34:00.526Z,7.40
2022-10-23T08:36:28.505Z,6.35
2022-10-23T08:38:56.392Z,7.60
2022-10-23T08:41:26.028Z,8.30
2022-10-23T08:44:00.361Z,7.10
2022-10-23T08:46:31.161Z,6.88
2022-10-23T08:49:08.982Z,7.45
2022-10-23T08:51:40.884Z,7.10
2022-10-23T08:54:13.990Z,7.03
2022-10-23T09:03:38.386Z,6.43
2022-10-23T09:06:15.249Z,7.50
2022-10-23T09:08:52.439Z,6.57
2022-10-23T09:11:26.778Z,6.63
2022-10-23T09:14:20.135Z,6.80
2022-10-23T09:17:00.264Z,6.50
2022-10-23T09:19:28.176Z,5.85
2022-10-23T09:21:56.262Z,6.07
2022-10-23T09:24:25.529Z,6.28
2022-10-23T09:26:54.025Z,5.20
2022-10-23T09:29:25.972Z,5.15
2022-10-23T09:31:54.432Z,5.15
2022-10-23T09:34:23.690Z,4.22
2022-10-23T09:39:28.805Z,3.95
2022-10-23T09:41:57.043Z,3.85
2022-10-23T09:44:25.391Z,3.50
2022-10-23T09:46:54.023Z,3.03
2022-10-23T09:49:23.671Z,3.55
2022-10-23T09:52:00.002Z,3.67
2022-10-23T09:54:27.991Z,3.03
2022-10-23T09:56:55.907Z,3.08
2022-10-23T09:59:26.675Z,3.10
2022-10-23T10:01:55.949Z,2.40
2022-10-23T10:04:32.631Z,3.53
2022-10-23T10:07:03.631Z,2.92
2022-10-23T10:09:30.266Z,3.10
2022-10-23T10:12:10.379Z,2.60
2022-10-23T10:14:52.747Z,2.70
2022-10-23T10:17:30.322Z,2.30
2022-10-23T10:20:18.796Z,2.35
2022-10-23T10:22:52.805Z,2.40
2022-10-23T10:25:25.586Z,2.28
2022-10-23T10:28:01.778Z,2.38
2022-10-23T10:30:34.721Z,2.45
2022-10-23T10:33:09.308Z,1.98
2022-10-23T10:35:42.846Z,2.35
2022-10-23T10:38:29.888Z,2.63
2022-10-23T10:41:25.169Z,2.47
2022-10-23T10:44:03.190Z,2.10
2022-10-23T10:46:33.433Z,2.00
2022-10-23T10:49:06.281Z,2.08
2022-10-23T10:51:38.965Z,2.58
2022-10-23T10:54:19.459Z,2.03
2022-10-23T10:56:47.582Z,2.53
2022-10-23T10:59:20.799Z,2.20
2022-10-23T11:01:53.343Z,1.90
2022-10-23T11:04:30.630Z,2.00
2022-10-23T11:06:59.479Z,2.05
2022-10-23T11:09:29.162Z,2.58
2022-10-23T11:11:56.121Z,1.98
2022-10-23T11:14:24.892Z,1.98
2022-10-23T11:16:54.682Z,1.80
2022-10-23T11:19:25.448Z,1.95
2022-10-23T11:21:58.280Z,1.85
2022-10-23T11:25:02.804Z,1.73
2022-10-23T11:28:04.450Z,1.98
2022-10-23T11:30:40.659Z,2.40
2022-10-23T11:33:35.703Z,1.85
2022-10-23T11:36:11.889Z,2.05
2022-10-23T11:38:40.774Z,1.77
2022-10-23T11:41:22.282Z,1.75
2022-10-23T11:43:54.140Z,1.70
2022-10-23T11:46:31.566Z,1.67
2022-10-23T11:48:58.843Z,1.65
2022-10-23T11:51:27.765Z,1.58
2022-10-23T11:54:06.349Z,1.40
2022-10-23T11:56:34.376Z,2.60
2022-10-23T11:59:22.279Z,1.98
2022-10-23T12:01:51.754Z,1.45
2022-10-23T12:04:23.945Z,1.38
2022-10-23T12:06:53.948Z,1.80
2022-10-23T12:09:31.664Z,1.35
2022-10-23T12:12:13.656Z,1.60
2022-10-23T12:14:42.531Z,1.70
2022-10-23T12:17:29.222Z,1.73
2022-10-23T12:20:21.179Z,1.77
2022-10-23T12:22:58.586Z,1.70
2022-10-23T12:25:34.659Z,1.63
2022-10-23T12:28:12.139Z,1.70
2022-10-23T12:30:45.356Z,1.45
2022-10-23T12:33:20.636Z,1.25
2022-10-23T12:36:16.940Z,1.60
2022-10-23T12:38:45.695Z,1.33
2022-10-23T12:41:15.578Z,1.40
2022-10-23T12:43:50.266Z,1.38
2022-10-23T12:46:27.795Z,1.27
2022-10-23T12:48:55.401Z,1.02
2022-10-23T12:51:24.239Z,1.33
2022-10-23T12:53:50.899Z,2.08
2022-10-23T12:56:18.537Z,1.25
2022-10-23T12:58:49.715Z,1.58
2022-10-23T13:01:24.503Z,1.58
2022-10-23T13:03:52.344Z,1.60
2022-10-23T13:06:19.092Z,1.50
2022-10-23T13:08:47.870Z,1.98
2022-10-23T13:11:17.421Z,1.40
2022-10-23T13:13:44.155Z,1.60
2022-10-23T13:16:16.648Z,1.35
2022-10-23T13:18:43.473Z,1.20
2022-10-23T13:21:17.648Z,1.70
2022-10-23T13:23:44.246Z,1.38
2022-10-23T13:26:25.768Z,1.38
2022-10-23T13:28:52.770Z,1.10
2022-10-23T13:31:31.066Z,1.42
2022-10-23T13:34:18.752Z,1.30
2022-10-23T13:36:58.297Z,1.20
2022-10-23T13:39:27.140Z,1.20
2022-10-23T13:41:53.873Z,1.20
2022-10-23T13:44:23.376Z,1.45
2022-10-23T13:46:51.740Z,1.23
2022-10-23T13:49:18.924Z,1.83
2022-10-23T13:51:48.661Z,1.25
2022-10-23T13:54:18.128Z,1.60
2022-10-23T13:56:45.250Z,1.65
2022-10-23T13:59:11.950Z,1.40
2022-10-23T14:01:39.350Z,1.70
2022-10-23T14:04:08.178Z,1.60
2022-10-23T14:06:34.882Z,1.38
2022-10-23T14:09:01.346Z,1.60
2022-10-23T14:11:27.916Z,1.27
2022-10-23T14:13:54.471Z,1.65
2022-10-23T14:16:21.038Z,1.50
2022-10-23T14:18:47.877Z,1.50
2022-10-23T14:21:18.097Z,1.30
2022-10-23T14:23:44.612Z,1.35
2022-10-23T14:26:12.831Z,1.52
2022-10-23T14:28:39.604Z,1.85
2022-10-23T14:31:08.189Z,1.30
2022-10-23T14:33:34.766Z,1.67
2022-10-23T14:36:01.783Z,1.50
2022-10-23T14:38:30.047Z,2.08
2022-10-23T14:40:56.548Z,1.88
2022-10-23T14:43:24.426Z,2.40
2022-10-23T14:45:51.397Z,1.92
2022-10-23T14:48:18.203Z,1.88
2022-10-23T14:50:46.717Z,1.95
2022-10-23T14:53:13.554Z,2.45
2022-10-23T14:55:41.689Z,1.60
2022-10-23T14:58:08.368Z,1.48
2022-10-23T15:00:34.901Z,1.33
2022-10-23T15:03:01.493Z,1.30
2022-10-23T15:05:27.993Z,1.67
2022-10-23T15:07:55.410Z,1.33
2022-10-23T15:10:21.946Z,1.77
2022-10-23T15:12:49.846Z,1.73
2022-10-23T15:15:16.488Z,1.52
2022-10-23T15:17:42.984Z,1.65
2022-10-23T15:20:10.293Z,1.90
2022-10-23T15:22:37.166Z,2.30
2022-10-23T15:25:04.209Z,2.25
2022-10-23T15:27:30.651Z,2.15
2022-10-23T15:29:58.475Z,1.98
2022-10-23T15:32:25.104Z,2.35
2022-10-23T15:34:51.892Z,1.92
2022-10-23T15:37:18.372Z,2.10
2022-10-23T15:39:45.054Z,2.67
2022-10-23T15:42:11.637Z,2.80
2022-10-23T15:44:40.285Z,2.47
2022-10-23T15:47:08.546Z,2.67
2022-10-23T15:49:35.250Z,3.38
2022-10-23T15:52:01.765Z,2.47
2022-10-23T15:54:30.673Z,2.42
2022-10-23T15:56:59.809Z,2.10
2022-10-23T15:59:26.753Z,3.08
2022-10-23T16:01:53.430Z,3.03
2022-10-23T16:04:21.932Z,2.60
2022-10-23T16:06:48.684Z,2.50
2022-10-23T16:09:15.727Z,3.13
2022-10-23T16:11:43.507Z,3.38
2022-10-23T16:14:12.823Z,3.20
2022-10-23T16:16:39.327Z,3.45
2022-10-23T16:19:06.018Z,3.17
2022-10-23T16:21:35.977Z,3.75
2022-10-23T16:24:05.130Z,3.53
2022-10-23T16:26:32.190Z,3.53
2022-10-23T16:29:00.244Z,4.07
2022-10-23T16:31:27.166Z,4.63
2022-10-23T16:36:28.858Z,5.63
2022-10-23T16:38:56.823Z,5.82
2022-10-23T16:41:23.305Z,4.15
2022-10-23T16:43:49.953Z,3.90
2022-10-23T16:46:18.325Z,3.30
2022-10-23T16:48:45.780Z,3.65
2022-10-23T16:51:21.724Z,4.07
2022-10-23T16:53:48.790Z,3.20
2022-10-23T16:56:17.068Z,3.53
2022-10-23T16:58:44.363Z,3.40
2022-10-23T17:01:13.101Z,2.53
2022-10-23T17:03:41.705Z,3.80
2022-10-23T17:06:11.162Z,3.20
2022-10-23T17:08:39.511Z,2.78
2022-10-23T17:11:08.187Z,3.38
2022-10-23T17:13:35.911Z,2.78
2022-10-23T17:16:04.511Z,2.95
2022-10-23T17:18:31.136Z,2.65
2022-10-23T17:20:58.027Z,3.22
2022-10-23T17:23:24.696Z,5.13
2022-10-23T17:25:52.633Z,3.78
2022-10-23T17:28:19.174Z,3.85
2022-10-23T17:30:45.688Z,3.80
2022-10-23T17:33:12.383Z,3.10
2022-10-23T17:35:39.485Z,3.40
2022-10-23T17:38:06.261Z,3.13
2022-10-23T17:40:33.024Z,3.33
2022-10-23T17:43:01.216Z,2.88
2022-10-23T17:45:27.910Z,3.75
2022-10-23T17:47:54.370Z,3.15
2022-10-23T17:50:20.861Z,3.88
2022-10-23T17:52:47.426Z,3.10
2022-10-23T17:55:13.950Z,3.72
2022-10-23T17:57:40.792Z,3.30
2022-10-23T18:00:09.989Z,3.28
2022-10-23T18:02:36.578Z,3.70
2022-10-23T18:05:03.396Z,3.30
2022-10-23T18:07:29.904Z,3.53
2022-10-23T18:09:56.489Z,3.85
2022-10-23T18:12:23.138Z,4.20
2022-10-23T18:14:49.703Z,4.00
2022-10-23T18:17:17.564Z,3.33
2022-10-23T18:19:44.091Z,3.60
2022-10-23T18:22:10.631Z,3.70
2022-10-23T18:24:37.215Z,3.40
2022-10-23T18:27:03.841Z,3.45
2022-10-23T18:29:30.523Z,4.63
2022-10-23T18:31:56.984Z,3.05
2022-10-23T18:34:25.459Z,3.50
2022-10-23T18:36:53.706Z,3.53
2022-10-23T18:39:22.816Z,3.70
2022-10-23T18:41:51.380Z,3.35
2022-10-23T18:44:19.843Z,3.83
2022-10-23T18:46:47.715Z,3.72
2022-10-23T18:49:16.254Z,3.72
2022-10-23T18:51:44.438Z,4.60
2022-10-23T18:54:13.577Z,3.90
2022-10-23T18:56:40.617Z,3.70
2022-10-23T18:59:11.253Z,3.70
2022-10-23T19:01:37.848Z,3.45
2022-10-23T19:04:05.329Z,3.75
2022-10-23T19:06:32.640Z,4.07
2022-10-23T19:09:00.474Z,3.92
2022-10-23T19:11:28.330Z,3.92
2022-10-23T19:13:55.179Z,4.00
2022-10-23T19:16:25.370Z,3.75
2022-10-23T19:18:55.635Z,4.00
2022-10-23T19:21:24.379Z,3.85
2022-10-23T19:23:51.968Z,4.30
2022-10-23T19:26:19.868Z,4.00
2022-10-23T19:28:48.195Z,3.30
2022-10-23T19:31:14.865Z,3.85
2022-10-23T19:33:41.524Z,3.63
2022-10-23T19:36:12.675Z,4.10
2022-10-23T19:38:40.824Z,3.55
2022-10-23T19:41:07.774Z,3.63
2022-10-23T19:43:36.139Z,4.10
2022-10-23T19:46:06.335Z,4.10
2022-10-23T19:48:35.964Z,3.85
2022-10-23T19:51:02.537Z,4.40
2022-10-23T19:53:29.279Z,4.25
2022-10-23T19:56:01.798Z,4.30
2022-10-23T19:58:28.286Z,3.65
2022-10-23T20:00:56.226Z,4.20
2022-10-23T20:03:22.762Z,3.90
2022-10-23T20:05:49.752Z,4.97
2022-10-23T20:08:16.244Z,4.47
2022-10-23T20:10:44.250Z,4.50
2022-10-23T20:13:26.468Z,4.18
2022-10-23T20:15:53.121Z,4.35
2022-10-23T20:18:21.183Z,3.83
2022-10-23T20:20:47.698Z,3.97
2022-10-23T20:23:14.195Z,4.20
2022-10-23T20:25:40.761Z,3.78
2022-10-23T20:28:09.121Z,5.13
2022-10-23T20:30:40.167Z,4.68
2022-10-23T20:33:06.997Z,4.82
2022-10-23T20:35:38.950Z,5.20
2022-10-23T20:38:05.509Z,4.40
2022-10-23T20:40:32.324Z,4.65
2022-10-23T20:42:58.852Z,4.43
2022-10-23T20:45:25.338Z,5.35
2022-10-23T20:47:51.860Z,4.00
2022-10-23T20:50:18.485Z,4.30
2022-10-23T20:52:46.398Z,4.15
2022-10-23T20:55:12.886Z,4.90
2022-10-23T20:57:39.378Z,4.07
2022-10-23T21:00:07.277Z,4.70
2022-10-23T21:02:33.856Z,4.38
2022-10-23T21:05:00.433Z,5.22
2022-10-23T21:07:26.915Z,4.93
2022-10-23T21:09:54.742Z,4.88
2022-10-23T21:12:21.229Z,4.40
2022-10-23T21:14:47.754Z,4.93
2022-10-23T21:17:14.258Z,5.68
2022-10-23T21:19:40.738Z,4.20
2022-10-23T21:22:07.204Z,4.30
2022-10-23T21:24:33.841Z,4.85
2022-10-23T21:27:01.657Z,4.40
2022-10-23T21:29:28.141Z,5.75
2022-10-23T21:31:57.131Z,4.65
2022-10-23T21:34:24.538Z,4.85
2022-10-23T21:37:11.922Z,4.78
2022-10-23T21:39:37.817Z,4.45
2022-10-23T21:42:05.770Z,4.55
2022-10-23T21:44:32.644Z,4.80
2022-10-23T21:46:59.130Z,4.90
2022-10-23T21:49:25.689Z,5.45
2022-10-23T21:51:52.323Z,5.05
2022-10-23T21:54:18.843Z,4.65
2022-10-23T21:56:46.809Z,5.00
2022-10-23T21:59:17.812Z,5.07
2022-10-23T22:01:46.054Z,5.38
2022-10-23T22:04:14.388Z,5.93
2022-10-23T22:06:41.863Z,6.07
2022-10-23T22:09:08.682Z,5.57
2022-10-23T22:11:35.238Z,5.15
2022-10-23T22:14:01.762Z,5.38
2022-10-23T22:16:29.666Z,5.28
2022-10-23T22:18:56.510Z,5.13
2022-10-23T22:21:25.283Z,5.18
2022-10-23T22:23:54.723Z,5.28
2022-10-23T22:26:23.888Z,5.25
2022-10-23T22:28:51.868Z,5.20
2022-10-23T22:31:20.688Z,5.90
2022-10-23T22:33:48.882Z,6.22
2022-10-23T22:36:15.692Z,4.75
2022-10-23T22:38:42.805Z,4.93
2022-10-23T22:41:09.648Z,5.10
2022-10-23T22:43:36.369Z,5.10
2022-10-23T22:46:04.368Z,4.70
2022-10-23T22:48:30.894Z,5.75
2022-10-23T22:50:58.878Z,4.72
2022-10-23T22:53:25.469Z,4.65
2022-10-23T22:55:52.374Z,5.22
2022-10-23T22:58:18.923Z,4.70
2022-10-23T23:00:45.680Z,4.90
2022-10-23T23:03:12.256Z,4.78
2022-10-23T23:08:15.288Z,5.30
2022-10-23T23:10:41.940Z,5.22
2022-10-23T23:13:08.649Z,4.82
2022-10-23T23:15:39.078Z,5.63
2022-10-23T23:18:05.725Z,5.82
2022-10-23T23:20:32.267Z,4.93
2022-10-23T23:22:58.741Z,5.05
2022-10-23T23:25:26.665Z,5.82
2022-10-23T23:27:53.189Z,5.22
2022-10-23T23:30:19.714Z,4.88
2022-10-23T23:32:47.649Z,5.65
2022-10-23T23:35:14.341Z,4.80
2022-10-23T23:37:40.837Z,5.28
2022-10-23T23:40:08.530Z,5.07
2022-10-23T23:42:36.383Z,5.18
2022-10-23T23:45:14.179Z,5.32
2022-10-23T23:47:42.003Z,5.63
2022-10-23T23:50:10.973Z,5.45
2022-10-23T23:52:37.538Z,5.10
2022-10-23T23:55:05.137Z,5.15
2022-10-23T23:57:31.673Z,5.95
2022-10-23T23:59:59.706Z,5.82
